sensor_id;sensor_type;location;lat;lon;timestamp;P1;durP1;ratioP1;P2;durP2;ratioP2
22521;SDS011;11427;51.062;17.044;2023-02-15T00:05:45;35.92;;;19.63;;
22521;SDS011;11427;51.062;17.044;2023-02-15T00:20:48;32.67;;;18.77;;
22521;SDS011;11427;51.062;17.044;2023-02-15T00:35:55;40.53;;;22.55;;
22521;SDS011;11427;51.062;17.044;2023-02-15T00:50:59;41.00;;;22.55;;
22521;SDS011;11427;51.062;17.044;2023-02-15T01:06:02;46.05;;;25.48;;
22521;SDS011;11427;51.062;17.044;2023-02-15T01:21:08;58.20;;;31.17;;
22521;SDS011;11427;51.062;17.044;2023-02-15T01:36:15;57.03;;;31.40;;
22521;SDS011;11427;51.062;17.044;2023-02-15T01:51:20;55.20;;;30.10;;
22521;SDS011;11427;51.062;17.044;2023-02-15T02:06:25;72.85;;;36.35;;
22521;SDS011;11427;51.062;17.044;2023-02-15T03:07:49;72.63;;;37.13;;
22521;SDS011;11427;51.062;17.044;2023-02-15T03:22:54;70.90;;;36.42;;
22521;SDS011;11427;51.062;17.044;2023-02-15T03:38:01;61.42;;;32.83;;
22521;SDS011;11427;51.062;17.044;2023-02-15T03:53:06;58.38;;;30.83;;
22521;SDS011;11427;51.062;17.044;2023-02-15T04:08:11;58.22;;;29.23;;
22521;SDS011;11427;51.062;17.044;2023-02-15T04:23:13;63.38;;;33.65;;
22521;SDS011;11427;51.062;17.044;2023-02-15T04:38:34;57.92;;;33.20;;
22521;SDS011;11427;51.062;17.044;2023-02-15T04:53:36;56.03;;;31.17;;
22521;SDS011;11427;51.062;17.044;2023-02-15T05:08:38;61.25;;;32.45;;
22521;SDS011;11427;51.062;17.044;2023-02-15T05:23:40;58.90;;;32.17;;
22521;SDS011;11427;51.062;17.044;2023-02-15T05:38:42;66.85;;;33.72;;
22521;SDS011;11427;51.062;17.044;2023-02-15T05:53:44;64.70;;;32.20;;
22521;SDS011;11427;51.062;17.044;2023-02-15T06:08:46;66.38;;;32.30;;
22521;SDS011;11427;51.062;17.044;2023-02-15T06:23:48;66.13;;;33.22;;
22521;SDS011;11427;51.062;17.044;2023-02-15T06:38:50;62.63;;;31.50;;
22521;SDS011;11427;51.062;17.044;2023-02-15T06:53:52;58.25;;;30.00;;
22521;SDS011;11427;51.062;17.044;2023-02-15T07:08:54;53.10;;;29.50;;
22521;SDS011;11427;51.062;17.044;2023-02-15T07:23:56;59.65;;;30.95;;
22521;SDS011;11427;51.062;17.044;2023-02-15T07:39:01;63.92;;;33.50;;
22521;SDS011;11427;51.062;17.044;2023-02-15T07:54:03;63.28;;;33.33;;
22521;SDS011;11427;51.062;17.044;2023-02-15T08:09:06;54.67;;;32.80;;
22521;SDS011;11427;51.062;17.044;2023-02-15T08:24:09;45.60;;;28.50;;
22521;SDS011;11427;51.062;17.044;2023-02-15T08:39:13;41.30;;;25.75;;
22521;SDS011;11427;51.062;17.044;2023-02-15T08:54:19;41.35;;;25.55;;
22521;SDS011;11427;51.062;17.044;2023-02-15T09:09:23;46.95;;;27.27;;
22521;SDS011;11427;51.062;17.044;2023-02-15T09:24:25;46.42;;;26.65;;
22521;SDS011;11427;51.062;17.044;2023-02-15T09:39:27;39.88;;;24.48;;
22521;SDS011;11427;51.062;17.044;2023-02-15T10:56:34;45.78;;;27.92;;
22521;SDS011;11427;51.062;17.044;2023-02-15T11:11:38;46.15;;;28.23;;
22521;SDS011;11427;51.062;17.044;2023-02-15T11:26:47;49.97;;;28.40;;
22521;SDS011;11427;51.062;17.044;2023-02-15T11:41:55;44.20;;;26.98;;
22521;SDS011;11427;51.062;17.044;2023-02-15T11:57:15;41.90;;;25.55;;
22521;SDS011;11427;51.062;17.044;2023-02-15T12:12:48;47.25;;;28.77;;
22521;SDS011;11427;51.062;17.044;2023-02-15T12:28:32;41.73;;;26.37;;
22521;SDS011;11427;51.062;17.044;2023-02-15T12:43:40;50.03;;;28.58;;
22521;SDS011;11427;51.062;17.044;2023-02-15T12:58:42;44.67;;;27.50;;
22521;SDS011;11427;51.062;17.044;2023-02-15T13:13:50;48.40;;;27.50;;
22521;SDS011;11427;51.062;17.044;2023-02-15T13:29:10;46.88;;;27.27;;
22521;SDS011;11427;51.062;17.044;2023-02-15T13:44:25;44.83;;;26.48;;
22521;SDS011;11427;51.062;17.044;2023-02-15T13:59:53;42.00;;;25.48;;
22521;SDS011;11427;51.062;17.044;2023-02-15T14:30:47;44.28;;;25.70;;
22521;SDS011;11427;51.062;17.044;2023-02-15T14:45:55;44.45;;;26.63;;
22521;SDS011;11427;51.062;17.044;2023-02-15T15:01:16;41.33;;;24.92;;
22521;SDS011;11427;51.062;17.044;2023-02-15T15:31:50;48.90;;;28.20;;
22521;SDS011;11427;51.062;17.044;2023-02-15T16:02:14;46.65;;;25.88;;
22521;SDS011;11427;51.062;17.044;2023-02-15T16:17:23;45.67;;;25.40;;
22521;SDS011;11427;51.062;17.044;2023-02-15T16:32:28;55.57;;;27.47;;
22521;SDS011;11427;51.062;17.044;2023-02-15T16:47:30;56.75;;;30.48;;
22521;SDS011;11427;51.062;17.044;2023-02-15T17:02:35;65.15;;;34.58;;
22521;SDS011;11427;51.062;17.044;2023-02-15T17:17:57;68.63;;;34.92;;
22521;SDS011;11427;51.062;17.044;2023-02-15T17:33:25;62.30;;;32.60;;
22521;SDS011;11427;51.062;17.044;2023-02-15T17:48:39;64.33;;;34.47;;
22521;SDS011;11427;51.062;17.044;2023-02-15T18:03:44;65.40;;;35.85;;
22521;SDS011;11427;51.062;17.044;2023-02-15T18:19:44;70.73;;;37.67;;
22521;SDS011;11427;51.062;17.044;2023-02-15T18:34:39;78.57;;;39.83;;
22521;SDS011;11427;51.062;17.044;2023-02-15T18:49:43;77.85;;;41.92;;
22521;SDS011;11427;51.062;17.044;2023-02-15T19:04:45;91.07;;;46.60;;
22521;SDS011;11427;51.062;17.044;2023-02-15T19:19:48;101.95;;;51.70;;
22521;SDS011;11427;51.062;17.044;2023-02-15T19:34:51;96.65;;;50.05;;
22521;SDS011;11427;51.062;17.044;2023-02-15T19:49:53;106.38;;;54.33;;
22521;SDS011;11427;51.062;17.044;2023-02-15T20:05:01;90.10;;;48.57;;
22521;SDS011;11427;51.062;17.044;2023-02-15T20:20:03;98.72;;;48.95;;
22521;SDS011;11427;51.062;17.044;2023-02-15T20:35:06;81.43;;;43.80;;
22521;SDS011;11427;51.062;17.044;2023-02-15T20:50:09;83.22;;;43.30;;
22521;SDS011;11427;51.062;17.044;2023-02-15T21:05:15;82.72;;;42.40;;
22521;SDS011;11427;51.062;17.044;2023-02-15T21:20:17;81.57;;;41.78;;
22521;SDS011;11427;51.062;17.044;2023-02-15T21:35:20;90.97;;;44.42;;
22521;SDS011;11427;51.062;17.044;2023-02-15T21:50:23;86.70;;;44.97;;
22521;SDS011;11427;51.062;17.044;2023-02-15T22:05:44;113.80;;;55.33;;
22521;SDS011;11427;51.062;17.044;2023-02-15T22:20:46;118.63;;;55.45;;
22521;SDS011;11427;51.062;17.044;2023-02-15T22:35:48;122.03;;;55.53;;
22521;SDS011;11427;51.062;17.044;2023-02-15T22:50:50;100.45;;;47.80;;
22521;SDS011;11427;51.062;17.044;2023-02-15T23:05:52;103.18;;;50.42;;
22521;SDS011;11427;51.062;17.044;2023-02-15T23:20:56;98.13;;;46.47;;
22521;SDS011;11427;51.062;17.044;2023-02-15T23:36:00;99.90;;;47.55;;
22521;SDS011;11427;51.062;17.044;2023-02-15T23:51:02;100.88;;;49.63;;
